Arlington, South Dakota
Current Conditions -  °F | °C
As of 9:15 AM on Wednesday 26 Nov 2014 (Local Time) from KMDS Reporting Station
Broken Clouds Broken Clouds  
Wind Chill: -17°   Ceiling: 5500
Heat Index: -8°   Visibility: 10mi
Dew Point: -8°   Wind: 20mph
Humidity: 100%   Direction: 360°N
Pressure: 30.15"   Gusts: NA
Location:  44.36°N, 97.13°W
Report Text: KMDS 261515Z AUTO 36017KT 10SM FEW006 SCT045 BKN055 M08/M08 A3015 RMK AO2
Loading
Personal Weather Stations






























Interactive Weather Map New forecast layout! Learn more

10-Day Weather Forecast

Advertisements
Track Severe Weather on mobile